Time;durP1;ratioP1;P1;durP2;ratioP2;P2;SDS_P1;SDS_P2;PMS_P1;PMS_P2;Temp;Humidity;BMP_temperature;BMP_pressure;BME280_temperature;BME280_humidity;BME280_pressure;Samples;Min_cycle;Max_cycle;Signal;HPM_P1;HPM_P2
2022/10/28 00:01:17;;;;;;;4.30;1.40;;;;;;;;;;5018708;28;20124;-86
2022/10/28 00:03:45;;;;;;;2.10;1.23;;;;;;;;;;5018992;28;20026;-86
2022/10/28 00:06:22;;;;;;;5.22;1.13;;;;;;;;;;5018698;28;20060;-86
2022/10/28 00:08:47;;;;;;;3.17;1.23;;;;;;;;;;5018619;28;20037;-87
2022/10/28 00:11:22;;;;;;;6.30;1.63;;;;;;;;;;5018541;28;20038;-86
2022/10/28 00:13:48;;;;;;;6.30;1.50;;;;;;;;;;5017172;28;20038;-86
2022/10/28 00:16:15;;;;;;;4.82;1.65;;;;;;;;;;5018117;28;20058;-86
2022/10/28 00:18:41;;;;;;;4.32;1.30;;;;;;;;;;5018239;28;20483;-86
2022/10/28 00:21:16;;;;;;;4.22;1.40;;;;;;;;;;5018212;28;20038;-85
2022/10/28 00:23:42;;;;;;;2.60;1.30;;;;;;;;;;5018046;28;20034;-86
2022/10/28 00:26:08;;;;;;;2.35;1.23;;;;;;;;;;5017203;28;20065;-85
2022/10/28 00:28:34;;;;;;;3.60;1.10;;;;;;;;;;5020070;28;20405;-86
2022/10/28 00:31:07;;;;;;;3.38;1.30;;;;;;;;;;5038269;28;20029;-86
2022/10/28 00:33:36;;;;;;;1.70;1.20;;;;;;;;;;5020233;28;20478;-86
2022/10/28 00:36:07;;;;;;;4.78;1.17;;;;;;;;;;5019654;28;20291;-86
2022/10/28 00:38:33;;;;;;;3.17;1.48;;;;;;;;;;5020077;28;20045;-86
2022/10/28 00:40:58;;;;;;;7.85;1.60;;;;;;;;;;5020317;28;20037;-86
2022/10/28 00:43:38;;;;;;;5.18;1.25;;;;;;;;;;5038069;28;20133;-86
2022/10/28 00:46:11;;;;;;;1.80;1.27;;;;;;;;;;5019191;28;20033;-86
2022/10/28 00:48:40;;;;;;;4.55;1.33;;;;;;;;;;5037644;28;20474;-86
2022/10/28 00:51:07;;;;;;;5.80;1.65;;;;;;;;;;5019748;28;20071;-86
2022/10/28 00:53:33;;;;;;;4.05;1.10;;;;;;;;;;5019825;28;20132;-86
2022/10/28 00:56:02;;;;;;;3.90;1.27;;;;;;;;;;5020029;28;20514;-85
2022/10/28 00:58:29;;;;;;;3.50;1.30;;;;;;;;;;5037963;28;20065;-85
2022/10/28 01:00:54;;;;;;;5.05;1.27;;;;;;;;;;5037625;28;20037;-85
2022/10/28 01:03:21;;;;;;;2.92;1.25;;;;;;;;;;5020458;28;20044;-86
2022/10/28 01:05:47;;;;;;;2.38;1.17;;;;;;;;;;5037681;28;20085;-85
2022/10/28 01:08:14;;;;;;;2.83;1.20;;;;;;;;;;5038359;28;20042;-86
2022/10/28 01:11:19;;;;;;;7.20;1.45;;;;;;;;;;5037778;28;20037;-85
2022/10/28 01:13:47;;;;;;;3.65;1.20;;;;;;;;;;4970529;28;20042;-86
2022/10/28 01:16:40;;;;;;;5.32;1.45;;;;;;;;;;5037033;28;20021;-86
2022/10/28 01:19:25;;;;;;;5.47;1.20;;;;;;;;;;5037811;28;20034;-85
2022/10/28 01:22:04;;;;;;;4.18;1.40;;;;;;;;;;5038092;28;20037;-86
2022/10/28 01:24:46;;;;;;;4.30;1.30;;;;;;;;;;5019280;28;20045;-85
2022/10/28 01:27:38;;;;;;;2.33;1.48;;;;;;;;;;5003663;28;20544;-86
2022/10/28 01:30:19;;;;;;;4.03;1.60;;;;;;;;;;5019903;28;20037;-86
2022/10/28 01:32:50;;;;;;;5.40;1.50;;;;;;;;;;5037084;28;20041;-86
2022/10/28 01:35:15;;;;;;;3.28;1.55;;;;;;;;;;5019083;28;20406;-86
2022/10/28 01:38:10;;;;;;;4.10;1.17;;;;;;;;;;5037673;28;20117;-86
2022/10/28 01:40:51;;;;;;;3.55;1.30;;;;;;;;;;5019621;28;20038;-86
2022/10/28 01:43:33;;;;;;;3.05;1.30;;;;;;;;;;5035620;28;20473;-85
2022/10/28 01:46:04;;;;;;;5.78;1.40;;;;;;;;;;5036598;28;20112;-87
2022/10/28 01:48:43;;;;;;;2.38;1.10;;;;;;;;;;5037062;28;20057;-84
2022/10/28 01:51:33;;;;;;;3.60;1.40;;;;;;;;;;5019513;28;20041;-86
2022/10/28 01:54:02;;;;;;;3.60;1.33;;;;;;;;;;5036476;28;20037;-85
2022/10/28 01:56:34;;;;;;;4.78;1.30;;;;;;;;;;5037168;28;20482;-85
2022/10/28 01:59:02;;;;;;;3.72;1.10;;;;;;;;;;5036202;28;20107;-85
2022/10/28 02:01:28;;;;;;;3.75;1.20;;;;;;;;;;5037195;28;20091;-86
2022/10/28 02:03:55;;;;;;;6.85;1.20;;;;;;;;;;5018677;28;20083;-85
2022/10/28 02:06:24;;;;;;;3.65;1.35;;;;;;;;;;5036845;28;20620;-85
2022/10/28 02:09:05;;;;;;;3.85;1.20;;;;;;;;;;5036768;28;20026;-86
2022/10/28 02:11:52;;;;;;;2.25;1.10;;;;;;;;;;5037179;28;20041;-86
2022/10/28 02:14:26;;;;;;;2.70;1.20;;;;;;;;;;5034611;28;20065;-86
2022/10/28 02:17:07;;;;;;;3.42;1.40;;;;;;;;;;5018808;28;20053;-85
2022/10/28 02:19:44;;;;;;;2.20;1.23;;;;;;;;;;5036658;28;20065;-86
2022/10/28 02:22:25;;;;;;;3.00;1.30;;;;;;;;;;5018786;28;20048;-86
2022/10/28 02:24:59;;;;;;;2.35;1.20;;;;;;;;;;5035869;28;20512;-85
2022/10/28 02:27:49;;;;;;;4.53;1.25;;;;;;;;;;5036420;28;20033;-86
2022/10/28 02:30:22;;;;;;;2.65;1.30;;;;;;;;;;5036354;28;20172;-85
2022/10/28 02:33:09;;;;;;;3.40;1.35;;;;;;;;;;5035875;28;20042;-86
2022/10/28 02:35:41;;;;;;;2.35;1.10;;;;;;;;;;5035422;28;20079;-85
2022/10/28 02:38:11;;;;;;;2.80;1.30;;;;;;;;;;5018373;28;20041;-85
2022/10/28 02:40:38;;;;;;;11.63;1.50;;;;;;;;;;5035991;28;20413;-84
2022/10/28 02:43:06;;;;;;;4.13;1.00;;;;;;;;;;5035997;28;20111;-86
2022/10/28 02:45:39;;;;;;;2.15;1.20;;;;;;;;;;5035196;28;20025;-86
2022/10/28 02:48:32;;;;;;;6.38;1.35;;;;;;;;;;5036227;28;20030;-86
2022/10/28 02:51:09;;;;;;;3.35;1.20;;;;;;;;;;5030746;28;20410;-85
2022/10/28 02:53:54;;;;;;;4.75;1.02;;;;;;;;;;5035583;28;20120;-86
2022/10/28 02:56:20;;;;;;;2.22;1.10;;;;;;;;;;5036805;28;20037;-85
2022/10/28 02:58:46;;;;;;;2.35;1.30;;;;;;;;;;5019716;28;20048;-86
2022/10/28 03:01:12;;;;;;;5.00;1.45;;;;;;;;;;5037284;28;20044;-85
2022/10/28 03:03:38;;;;;;;2.65;1.25;;;;;;;;;;5036787;28;20029;-85
2022/10/28 03:06:04;;;;;;;3.85;1.30;;;;;;;;;;5018790;28;20060;-85
2022/10/28 03:08:29;;;;;;;5.68;1.40;;;;;;;;;;5036927;28;20037;-86
2022/10/28 03:10:55;;;;;;;3.03;1.58;;;;;;;;;;5037480;28;20041;-85
2022/10/28 03:13:20;;;;;;;3.78;1.50;;;;;;;;;;5035501;28;20067;-85
2022/10/28 03:15:46;;;;;;;9.80;3.45;;;;;;;;;;5018723;28;20041;-84
2022/10/28 03:18:11;;;;;;;12.70;3.85;;;;;;;;;;5037127;28;20034;-86
2022/10/28 03:20:37;;;;;;;5.22;2.55;;;;;;;;;;5036199;28;20041;-85
2022/10/28 03:23:02;;;;;;;3.55;1.52;;;;;;;;;;5037767;28;20033;-86
2022/10/28 03:25:27;;;;;;;3.17;1.27;;;;;;;;;;5039070;28;20513;-86
2022/10/28 03:27:53;;;;;;;3.25;1.15;;;;;;;;;;5021582;28;20037;-85
2022/10/28 03:30:18;;;;;;;4.47;1.33;;;;;;;;;;5039441;28;20041;-85
2022/10/28 03:32:44;;;;;;;4.03;1.50;;;;;;;;;;5039964;28;20029;-86
2022/10/28 03:35:10;;;;;;;1.88;1.15;;;;;;;;;;5021689;28;20398;-84
2022/10/28 03:37:35;;;;;;;2.05;1.20;;;;;;;;;;5039822;28;20497;-86
2022/10/28 03:40:06;;;;;;;4.65;1.20;;;;;;;;;;5039970;28;20042;-86
2022/10/28 03:42:32;;;;;;;4.15;1.20;;;;;;;;;;5039673;28;20117;-86
2022/10/28 03:44:58;;;;;;;5.60;1.50;;;;;;;;;;5038929;28;20528;-84
2022/10/28 03:47:24;;;;;;;3.92;1.40;;;;;;;;;;5039683;28;20034;-86
2022/10/28 03:49:49;;;;;;;3.80;1.65;;;;;;;;;;5039089;28;20481;-85
2022/10/28 03:52:15;;;;;;;6.13;1.52;;;;;;;;;;5039326;28;20026;-86
2022/10/28 03:54:40;;;;;;;2.72;1.30;;;;;;;;;;5038378;28;20409;-85
2022/10/28 03:57:05;;;;;;;1.98;1.30;;;;;;;;;;5039145;28;20095;-85
2022/10/28 03:59:31;;;;;;;6.75;1.55;;;;;;;;;;5038805;28;20034;-86
2022/10/28 04:01:56;;;;;;;4.53;1.27;;;;;;;;;;5038863;28;20037;-84
2022/10/28 04:04:22;;;;;;;4.20;1.33;;;;;;;;;;5020167;28;20449;-85
2022/10/28 04:06:47;;;;;;;5.72;1.50;;;;;;;;;;5039680;28;20112;-85
2022/10/28 04:09:13;;;;;;;2.50;1.30;;;;;;;;;;5039120;28;20522;-84
2022/10/28 04:11:38;;;;;;;5.93;1.58;;;;;;;;;;5020942;28;20037;-85
2022/10/28 04:14:04;;;;;;;6.90;1.65;;;;;;;;;;5036754;28;20053;-86
2022/10/28 04:16:29;;;;;;;5.22;1.60;;;;;;;;;;5020449;28;20402;-86
2022/10/28 04:18:54;;;;;;;4.93;1.88;;;;;;;;;;5020340;28;20605;-86
2022/10/28 04:21:20;;;;;;;6.07;2.03;;;;;;;;;;5039101;28;20402;-85
2022/10/28 04:23:45;;;;;;;3.97;1.80;;;;;;;;;;5038740;28;20037;-86
2022/10/28 04:26:11;;;;;;;4.20;1.65;;;;;;;;;;5036637;28;20471;-85
2022/10/28 04:28:36;;;;;;;5.07;1.90;;;;;;;;;;5037435;28;20056;-86
2022/10/28 04:31:02;;;;;;;3.22;1.73;;;;;;;;;;5019121;28;20041;-86
2022/10/28 04:33:28;;;;;;;6.35;1.73;;;;;;;;;;5036703;28;20042;-86
2022/10/28 04:35:53;;;;;;;2.47;1.65;;;;;;;;;;5035805;28;20084;-86
2022/10/28 04:38:18;;;;;;;9.90;2.15;;;;;;;;;;5036962;28;20042;-86
2022/10/28 04:40:47;;;;;;;9.43;2.20;;;;;;;;;;5037608;28;20025;-86
2022/10/28 04:43:14;;;;;;;3.50;2.00;;;;;;;;;;5019722;28;20037;-86
2022/10/28 04:45:39;;;;;;;4.65;1.50;;;;;;;;;;5036144;28;20093;-86
2022/10/28 04:48:05;;;;;;;2.75;1.40;;;;;;;;;;5037143;28;20060;-85
2022/10/28 04:50:30;;;;;;;3.80;1.70;;;;;;;;;;5037024;28;20116;-86
2022/10/28 04:52:56;;;;;;;4.40;1.85;;;;;;;;;;5003241;28;20037;-86
2022/10/28 04:55:21;;;;;;;3.45;2.00;;;;;;;;;;5035981;28;20116;-86
2022/10/28 04:57:58;;;;;;;6.13;2.10;;;;;;;;;;5036673;28;20046;-86
2022/10/28 05:00:25;;;;;;;6.55;1.90;;;;;;;;;;5036516;28;20029;-86
2022/10/28 05:02:51;;;;;;;4.93;1.73;;;;;;;;;;5036721;28;20025;-86
2022/10/28 05:05:17;;;;;;;5.20;1.70;;;;;;;;;;5018275;28;20040;-86
2022/10/28 05:07:42;;;;;;;5.10;2.05;;;;;;;;;;5002925;28;20036;-86
2022/10/28 05:10:08;;;;;;;5.20;1.90;;;;;;;;;;5019315;28;20124;-86
2022/10/28 05:12:33;;;;;;;4.65;1.67;;;;;;;;;;5035797;28;20303;-85
2022/10/28 05:14:59;;;;;;;6.38;1.73;;;;;;;;;;5034928;28;20041;-85
2022/10/28 05:17:24;;;;;;;8.38;1.80;;;;;;;;;;5018442;28;20120;-85
2022/10/28 05:19:50;;;;;;;6.40;2.00;;;;;;;;;;5036014;28;20034;-86
2022/10/28 05:22:16;;;;;;;8.50;2.08;;;;;;;;;;5036409;28;20029;-86
2022/10/28 05:24:41;;;;;;;5.70;1.67;;;;;;;;;;5035592;28;20038;-86
2022/10/28 05:27:06;;;;;;;5.90;1.88;;;;;;;;;;5035108;28;20041;-85
2022/10/28 05:29:32;;;;;;;3.45;1.40;;;;;;;;;;5034982;28;20506;-86
2022/10/28 05:31:59;;;;;;;6.20;1.50;;;;;;;;;;5036339;28;20064;-86
2022/10/28 05:34:24;;;;;;;3.58;1.50;;;;;;;;;;5035226;28;20088;-86
2022/10/28 05:36:50;;;;;;;3.33;1.20;;;;;;;;;;5018591;28;20037;-86
2022/10/28 05:39:16;;;;;;;3.28;1.60;;;;;;;;;;5017788;28;20030;-85
2022/10/28 05:41:42;;;;;;;3.20;1.33;;;;;;;;;;5034739;28;20030;-86
2022/10/28 05:44:07;;;;;;;6.07;1.52;;;;;;;;;;5034267;28;20099;-85
2022/10/28 05:46:33;;;;;;;3.20;1.40;;;;;;;;;;5034693;28;20044;-85
2022/10/28 05:48:58;;;;;;;4.68;1.27;;;;;;;;;;5034383;28;20061;-85
2022/10/28 05:51:23;;;;;;;5.05;1.30;;;;;;;;;;5034257;28;20036;-85
2022/10/28 05:53:50;;;;;;;1.95;1.25;;;;;;;;;;5034689;28;20065;-85
2022/10/28 05:56:16;;;;;;;3.50;1.60;;;;;;;;;;5034192;28;20030;-86
2022/10/28 05:58:42;;;;;;;5.78;1.60;;;;;;;;;;5034174;28;20405;-86
2022/10/28 06:01:07;;;;;;;6.63;1.48;;;;;;;;;;5034144;28;20040;-85
2022/10/28 06:03:33;;;;;;;4.28;2.20;;;;;;;;;;5035424;28;20080;-86
2022/10/28 06:05:59;;;;;;;3.53;1.60;;;;;;;;;;5034566;28;20537;-86
2022/10/28 06:08:24;;;;;;;3.35;1.48;;;;;;;;;;5035694;28;20118;-86
2022/10/28 06:10:52;;;;;;;4.28;1.63;;;;;;;;;;5036525;28;20127;-85
2022/10/28 06:13:17;;;;;;;5.97;1.40;;;;;;;;;;5016027;28;20083;-83
2022/10/28 06:15:43;;;;;;;4.55;1.50;;;;;;;;;;5034077;28;20037;-86
2022/10/28 06:18:08;;;;;;;6.60;1.40;;;;;;;;;;5036109;28;20022;-86
2022/10/28 06:20:34;;;;;;;3.08;1.60;;;;;;;;;;5017880;28;20041;-85
2022/10/28 06:22:59;;;;;;;4.50;1.92;;;;;;;;;;5017921;28;20029;-85
2022/10/28 06:25:26;;;;;;;3.88;1.60;;;;;;;;;;5034797;28;20040;-86
2022/10/28 06:27:55;;;;;;;2.83;1.40;;;;;;;;;;5035737;28;20032;-86
2022/10/28 06:30:21;;;;;;;4.75;2.00;;;;;;;;;;5035721;28;20060;-85
2022/10/28 06:32:47;;;;;;;6.15;1.88;;;;;;;;;;5036389;28;20087;-86
2022/10/28 06:35:12;;;;;;;3.78;1.98;;;;;;;;;;5035245;28;20038;-86
2022/10/28 06:37:38;;;;;;;7.32;2.80;;;;;;;;;;5036353;28;20033;-87
2022/10/28 06:40:04;;;;;;;3.83;1.95;;;;;;;;;;5034881;28;20029;-87
2022/10/28 06:42:29;;;;;;;5.18;1.60;;;;;;;;;;5035201;28;20075;-86
2022/10/28 06:44:55;;;;;;;3.55;1.75;;;;;;;;;;5034912;28;20037;-87
2022/10/28 06:47:20;;;;;;;2.35;1.30;;;;;;;;;;5036099;28;20026;-87
2022/10/28 06:49:46;;;;;;;10.88;1.30;;;;;;;;;;5035076;28;20033;-87
2022/10/28 06:52:11;;;;;;;8.52;1.55;;;;;;;;;;5017855;28;20041;-87
2022/10/28 06:54:37;;;;;;;2.80;1.52;;;;;;;;;;5017138;28;20037;-87
2022/10/28 06:57:02;;;;;;;3.50;1.20;;;;;;;;;;5036018;28;20030;-86
2022/10/28 06:59:28;;;;;;;4.55;1.08;;;;;;;;;;5022295;28;20044;-87
2022/10/28 07:01:53;;;;;;;4.68;1.38;;;;;;;;;;5039855;28;20072;-88
2022/10/28 07:04:18;;;;;;;3.03;1.23;;;;;;;;;;5040334;28;20029;-87
2022/10/28 07:06:44;;;;;;;7.68;1.40;;;;;;;;;;5040725;28;20045;-87
2022/10/28 07:09:13;;;;;;;5.20;1.25;;;;;;;;;;5041469;28;20068;-87
2022/10/28 07:11:44;;;;;;;3.47;1.20;;;;;;;;;;5024762;28;20029;-87
2022/10/28 07:14:10;;;;;;;2.83;1.30;;;;;;;;;;5039994;28;20049;-87
2022/10/28 07:16:35;;;;;;;2.83;1.30;;;;;;;;;;5021844;28;20030;-87
2022/10/28 07:19:01;;;;;;;1.95;1.10;;;;;;;;;;5039260;28;20040;-87
2022/10/28 07:21:28;;;;;;;4.15;1.25;;;;;;;;;;5039310;28;20104;-86
2022/10/28 07:23:57;;;;;;;5.22;1.20;;;;;;;;;;5037717;28;20044;-87
2022/10/28 07:26:23;;;;;;;3.40;1.42;;;;;;;;;;5021017;28;20068;-86
2022/10/28 07:28:49;;;;;;;3.33;1.30;;;;;;;;;;5038956;28;20033;-87
2022/10/28 07:31:14;;;;;;;7.20;1.35;;;;;;;;;;5021139;28;20034;-87
2022/10/28 07:33:40;;;;;;;5.47;1.13;;;;;;;;;;5038393;28;20072;-87
2022/10/28 07:36:06;;;;;;;3.35;1.40;;;;;;;;;;5038324;28;20034;-87
2022/10/28 07:38:32;;;;;;;2.90;1.30;;;;;;;;;;5038746;28;20155;-86
2022/10/28 07:40:57;;;;;;;4.40;1.27;;;;;;;;;;5039200;28;20057;-87
2022/10/28 07:43:23;;;;;;;2.50;1.20;;;;;;;;;;5040082;28;20033;-87
2022/10/28 07:45:55;;;;;;;6.00;1.20;;;;;;;;;;5038760;28;20041;-87
2022/10/28 07:48:20;;;;;;;2.03;1.05;;;;;;;;;;5021354;28;20124;-87
2022/10/28 07:50:46;;;;;;;2.53;1.20;;;;;;;;;;5038273;28;20513;-87
2022/10/28 07:53:11;;;;;;;4.97;1.02;;;;;;;;;;5037951;28;20033;-87
2022/10/28 07:55:36;;;;;;;3.72;1.15;;;;;;;;;;5037692;28;20084;-87
2022/10/28 07:58:02;;;;;;;4.65;1.10;;;;;;;;;;5038895;28;20128;-87
2022/10/28 08:00:27;;;;;;;3.88;1.50;;;;;;;;;;5020492;28;20040;-87
2022/10/28 08:02:53;;;;;;;4.70;1.50;;;;;;;;;;5039010;28;20379;-86
2022/10/28 08:05:18;;;;;;;3.28;0.90;;;;;;;;;;5037936;28;20054;-87
2022/10/28 08:07:45;;;;;;;8.35;1.70;;;;;;;;;;5038027;28;20044;-86
2022/10/28 08:10:11;;;;;;;2.92;1.20;;;;;;;;;;5038194;28;20041;-86
2022/10/28 08:12:36;;;;;;;3.78;1.17;;;;;;;;;;5020555;28;20075;-85
2022/10/28 08:15:03;;;;;;;3.67;1.10;;;;;;;;;;5020425;28;20091;-86
2022/10/28 08:17:29;;;;;;;6.25;1.20;;;;;;;;;;5038473;28;20124;-86
2022/10/28 08:19:54;;;;;;;2.05;1.20;;;;;;;;;;5020788;28;20069;-88
2022/10/28 08:22:20;;;;;;;5.18;1.60;;;;;;;;;;5035766;28;20112;-86
2022/10/28 08:24:45;;;;;;;5.30;1.48;;;;;;;;;;5034114;28;20401;-86
2022/10/28 08:27:11;;;;;;;3.67;1.10;;;;;;;;;;5034533;28;20065;-89
2022/10/28 08:29:36;;;;;;;2.60;1.10;;;;;;;;;;5034633;28;20029;-87
2022/10/28 08:32:13;;;;;;;8.48;1.40;;;;;;;;;;5034775;28;20068;-89
2022/10/28 08:34:51;;;;;;;6.28;1.20;;;;;;;;;;5037514;28;20052;-88
2022/10/28 08:37:16;;;;;;;5.72;1.30;;;;;;;;;;5034778;28;20044;-89
2022/10/28 08:39:42;;;;;;;2.70;1.10;;;;;;;;;;5033170;28;20045;-89
2022/10/28 08:42:45;;;;;;;2.70;1.13;;;;;;;;;;5034512;28;20033;-87
2022/10/28 08:45:16;;;;;;;5.00;1.30;;;;;;;;;;5016302;28;20617;-90
2022/10/28 08:48:27;;;;;;;9.70;1.52;;;;;;;;;;5016867;28;20600;-89
2022/10/28 08:51:04;;;;;;;4.10;0.90;;;;;;;;;;5032479;28;20140;-90
2022/10/28 08:53:36;;;;;;;5.03;1.00;;;;;;;;;;5017495;28;20215;-91
2022/10/28 08:56:45;;;;;;;4.75;0.90;;;;;;;;;;5034567;28;20033;-88
2022/10/28 08:59:30;;;;;;;3.50;1.30;;;;;;;;;;4993372;28;20046;-88
2022/10/28 09:01:59;;;;;;;5.68;1.00;;;;;;;;;;5016693;28;20050;-88
2022/10/28 09:04:25;;;;;;;3.83;1.25;;;;;;;;;;5017074;28;20041;-87
2022/10/28 09:06:50;;;;;;;3.45;1.08;;;;;;;;;;5035744;28;20040;-88
2022/10/28 09:09:21;;;;;;;3.67;1.23;;;;;;;;;;5036443;28;20045;-87
2022/10/28 09:12:02;;;;;;;3.97;1.15;;;;;;;;;;5037218;28;20399;-87
2022/10/28 09:14:32;;;;;;;3.22;1.00;;;;;;;;;;5036251;28;20045;-88
2022/10/28 09:17:24;;;;;;;4.15;1.10;;;;;;;;;;5016378;28;20496;-88
2022/10/28 09:19:55;;;;;;;3.95;1.17;;;;;;;;;;5037581;28;20037;-87
2022/10/28 09:22:26;;;;;;;3.60;1.20;;;;;;;;;;5037191;28;20111;-87
2022/10/28 09:25:05;;;;;;;3.07;1.00;;;;;;;;;;5035408;28;20103;-88
2022/10/28 09:27:45;;;;;;;7.05;1.23;;;;;;;;;;5036905;28;20033;-89
2022/10/28 09:30:43;;;;;;;4.65;1.20;;;;;;;;;;5036333;28;20057;-87
2022/10/28 09:33:27;;;;;;;3.95;1.63;;;;;;;;;;5035925;28;20041;-87
2022/10/28 09:35:54;;;;;;;5.07;1.10;;;;;;;;;;5017745;28;20104;-87
2022/10/28 09:38:31;;;;;;;4.22;1.20;;;;;;;;;;5036075;28;20116;-87
2022/10/28 09:41:24;;;;;;;2.70;1.02;;;;;;;;;;5035491;28;20565;-87
2022/10/28 09:43:55;;;;;;;1.73;1.00;;;;;;;;;;5029362;28;20045;-87
2022/10/28 09:46:22;;;;;;;3.70;1.30;;;;;;;;;;5001501;28;20037;-87
2022/10/28 09:48:54;;;;;;;3.88;1.20;;;;;;;;;;5018461;28;20367;-87
2022/10/28 09:51:22;;;;;;;4.18;1.10;;;;;;;;;;5036063;28;20033;-87
2022/10/28 09:53:55;;;;;;;3.10;1.20;;;;;;;;;;5018119;28;20041;-87
2022/10/28 09:56:22;;;;;;;3.67;1.30;;;;;;;;;;5035800;28;20041;-89
2022/10/28 09:58:47;;;;;;;2.70;0.90;;;;;;;;;;5034438;28;20038;-88
2022/10/28 10:01:15;;;;;;;4.88;1.10;;;;;;;;;;5034701;28;20513;-90
2022/10/28 10:03:42;;;;;;;4.80;1.42;;;;;;;;;;5016627;28;20037;-87
2022/10/28 10:06:33;;;;;;;5.93;1.33;;;;;;;;;;5034793;28;20037;-88
2022/10/28 10:09:00;;;;;;;5.65;1.08;;;;;;;;;;5026733;28;20124;-88
2022/10/28 10:11:28;;;;;;;4.38;1.40;;;;;;;;;;5033904;28;20118;-88
2022/10/28 10:13:56;;;;;;;4.05;0.90;;;;;;;;;;5015563;28;20041;-88
2022/10/28 10:16:43;;;;;;;7.47;1.30;;;;;;;;;;5033389;28;20033;-88
2022/10/28 10:19:12;;;;;;;3.72;0.98;;;;;;;;;;5015768;28;20045;-87
2022/10/28 10:21:45;;;;;;;5.95;1.35;;;;;;;;;;5016066;28;20041;-88
2022/10/28 10:24:30;;;;;;;3.55;1.17;;;;;;;;;;5016912;28;20041;-88
2022/10/28 10:26:58;;;;;;;3.90;1.33;;;;;;;;;;5033119;28;20046;-87
2022/10/28 10:29:27;;;;;;;3.70;1.00;;;;;;;;;;5015912;28;20034;-88
2022/10/28 10:32:15;;;;;;;5.10;1.20;;;;;;;;;;5034767;28;20037;-88
2022/10/28 10:35:09;;;;;;;3.97;1.20;;;;;;;;;;5037339;28;20075;-88
2022/10/28 10:37:38;;;;;;;3.78;0.98;;;;;;;;;;5006624;28;20057;-89
2022/10/28 10:40:17;;;;;;;4.82;1.30;;;;;;;;;;5037413;28;20034;-88
2022/10/28 10:42:42;;;;;;;5.32;1.13;;;;;;;;;;5020628;28;20038;-88
2022/10/28 10:45:26;;;;;;;5.57;1.23;;;;;;;;;;5037462;28;20044;-88
2022/10/28 10:48:14;;;;;;;4.47;1.40;;;;;;;;;;5037351;28;20069;-88
2022/10/28 10:50:45;;;;;;;3.50;1.13;;;;;;;;;;5019723;28;20045;-87
2022/10/28 10:53:31;;;;;;;4.20;1.20;;;;;;;;;;5019880;28;20049;-88
2022/10/28 10:55:59;;;;;;;6.22;1.40;;;;;;;;;;5019279;28;20033;-87
2022/10/28 10:58:28;;;;;;;2.88;1.08;;;;;;;;;;5037347;28;20037;-89
2022/10/28 11:00:57;;;;;;;3.70;1.27;;;;;;;;;;5036766;28;20501;-88
2022/10/28 11:03:57;;;;;;;6.93;1.48;;;;;;;;;;5019579;28;20018;-88
2022/10/28 11:06:27;;;;;;;3.40;1.10;;;;;;;;;;5004583;28;20046;-88
2022/10/28 11:08:59;;;;;;;4.60;1.20;;;;;;;;;;5019710;28;20022;-88
2022/10/28 11:11:36;;;;;;;4.80;1.10;;;;;;;;;;5019063;28;20040;-87
2022/10/28 11:14:04;;;;;;;4.63;1.20;;;;;;;;;;5001647;28;20033;-88
2022/10/28 11:16:29;;;;;;;6.45;1.48;;;;;;;;;;5019226;28;20049;-88
2022/10/28 11:18:55;;;;;;;3.58;1.33;;;;;;;;;;5018849;28;20063;-87
2022/10/28 11:21:33;;;;;;;2.95;1.15;;;;;;;;;;5037025;28;20044;-88
2022/10/28 11:24:17;;;;;;;5.30;1.00;;;;;;;;;;5036060;28;20044;-88
2022/10/28 11:27:11;;;;;;;3.15;1.25;;;;;;;;;;5019252;28;20036;-88
2022/10/28 11:29:37;;;;;;;2.22;1.05;;;;;;;;;;5008735;28;20502;-88
2022/10/28 11:32:17;;;;;;;4.45;1.27;;;;;;;;;;5002225;28;20037;-88
2022/10/28 11:35:12;;;;;;;3.72;1.17;;;;;;;;;;5018219;28;20061;-89
2022/10/28 11:38:11;;;;;;;2.47;1.10;;;;;;;;;;5036869;28;20029;-88
2022/10/28 11:40:39;;;;;;;4.18;1.13;;;;;;;;;;5018261;28;20072;-87
2022/10/28 11:43:17;;;;;;;3.03;1.20;;;;;;;;;;5035468;28;20033;-88
2022/10/28 11:46:07;;;;;;;3.20;1.17;;;;;;;;;;5018083;28;20073;-88
2022/10/28 11:48:39;;;;;;;3.30;1.15;;;;;;;;;;5035358;28;20112;-88
2022/10/28 11:51:23;;;;;;;2.83;1.10;;;;;;;;;;5018161;28;20052;-89
2022/10/28 11:53:55;;;;;;;3.25;1.27;;;;;;;;;;5019069;28;20048;-89
2022/10/28 11:56:40;;;;;;;5.13;1.40;;;;;;;;;;5035823;28;20099;-88
2022/10/28 11:59:24;;;;;;;2.55;0.93;;;;;;;;;;5017700;28;20128;-87
2022/10/28 12:02:10;;;;;;;4.38;1.30;;;;;;;;;;5002725;28;20033;-88
2022/10/28 12:05:11;;;;;;;5.25;1.45;;;;;;;;;;5017699;28;20038;-88
2022/10/28 12:07:58;;;;;;;3.17;0.93;;;;;;;;;;5018743;28;20030;-89
2022/10/28 12:10:29;;;;;;;6.40;1.40;;;;;;;;;;5035842;28;20033;-89
2022/10/28 12:13:13;;;;;;;5.18;1.30;;;;;;;;;;5017815;28;20497;-88
2022/10/28 12:15:41;;;;;;;5.80;1.35;;;;;;;;;;5035522;28;20605;-88
2022/10/28 12:18:19;;;;;;;2.72;1.10;;;;;;;;;;5036308;28;20360;-87
2022/10/28 12:21:20;;;;;;;4.97;1.20;;;;;;;;;;5018367;28;20433;-88
2022/10/28 12:23:47;;;;;;;4.35;1.23;;;;;;;;;;5026033;28;20053;-89
2022/10/28 12:26:16;;;;;;;2.58;1.20;;;;;;;;;;5036295;28;20037;-88
2022/10/28 12:29:00;;;;;;;4.90;1.00;;;;;;;;;;5036459;28;20037;-88
2022/10/28 12:31:31;;;;;;;6.65;1.30;;;;;;;;;;5035211;28;20045;-89
2022/10/28 12:34:05;;;;;;;5.90;1.38;;;;;;;;;;5034845;28;20091;-88
2022/10/28 12:36:58;;;;;;;5.60;1.33;;;;;;;;;;5035342;28;20041;-88
2022/10/28 12:39:36;;;;;;;4.65;1.30;;;;;;;;;;5035096;28;20112;-88
2022/10/28 12:42:22;;;;;;;5.13;1.20;;;;;;;;;;5035266;28;20033;-87
2022/10/28 12:44:50;;;;;;;3.70;1.02;;;;;;;;;;5034377;28;20049;-87
2022/10/28 12:47:26;;;;;;;4.90;1.17;;;;;;;;;;5035760;28;20022;-88
2022/10/28 12:50:22;;;;;;;13.00;1.73;;;;;;;;;;5035376;28;20037;-89
2022/10/28 12:53:02;;;;;;;5.32;1.15;;;;;;;;;;5036214;28;20041;-87
2022/10/28 12:55:27;;;;;;;3.50;1.02;;;;;;;;;;5033615;28;20094;-88
2022/10/28 12:58:14;;;;;;;6.82;1.38;;;;;;;;;;5034421;28;20060;-88
2022/10/28 13:00:48;;;;;;;3.17;1.30;;;;;;;;;;5001406;28;20056;-88
2022/10/28 13:03:14;;;;;;;;;;;;;;;;;;5019741;28;20402;-87
2022/10/28 13:06:27;;;;;;;4.07;1.20;;;;;;;;;;5016658;28;19924;-88
2022/10/28 13:08:57;;;;;;;6.47;2.20;;;;;;;;;;4973604;28;20773;-88
2022/10/28 13:11:52;;;;;;;3.83;1.45;;;;;;;;;;5018289;28;20041;-88
2022/10/28 13:15:02;;;;;;;3.75;1.30;;;;;;;;;;5034784;28;20041;-88
2022/10/28 13:17:53;;;;;;;4.05;1.23;;;;;;;;;;4953187;29;20085;-89
2022/10/28 13:20:53;;;;;;;4.40;1.40;;;;;;;;;;4954550;29;20062;-89
2022/10/28 13:23:51;;;;;;;4.63;1.38;;;;;;;;;;5025229;28;20049;-89
2022/10/28 13:26:35;;;;;;;5.72;1.30;;;;;;;;;;5000073;28;20030;-89
2022/10/28 13:29:06;;;;;;;6.85;1.33;;;;;;;;;;5033947;28;20398;-89
2022/10/28 13:31:44;;;;;;;3.15;1.10;;;;;;;;;;5016981;28;20041;-89
2022/10/28 13:34:15;;;;;;;2.97;1.10;;;;;;;;;;5016246;28;20041;-89
2022/10/28 13:36:49;;;;;;;5.45;1.30;;;;;;;;;;5016255;28;20029;-88
2022/10/28 13:39:32;;;;;;;8.27;1.30;;;;;;;;;;5033824;28;20040;-89
2022/10/28 13:42:22;;;;;;;6.28;1.30;;;;;;;;;;5017482;28;20037;-88
2022/10/28 13:45:01;;;;;;;6.95;1.52;;;;;;;;;;5034004;28;20413;-88
2022/10/28 13:47:34;;;;;;;7.47;1.20;;;;;;;;;;5015443;28;20045;-89
2022/10/28 13:50:11;;;;;;;4.43;1.50;;;;;;;;;;5015926;28;20504;-89
2022/10/28 13:52:47;;;;;;;3.30;1.13;;;;;;;;;;5015864;28;20048;-89
2022/10/28 13:55:20;;;;;;;5.20;1.10;;;;;;;;;;5015954;28;20083;-89
2022/10/28 13:58:10;;;;;;;4.72;1.10;;;;;;;;;;5015352;28;20045;-89
2022/10/28 14:00:36;;;;;;;2.25;1.20;;;;;;;;;;5032628;28;20034;-90
2022/10/28 14:03:17;;;;;;;4.80;1.40;;;;;;;;;;4999380;28;20037;-89
2022/10/28 14:05:43;;;;;;;3.88;1.40;;;;;;;;;;5015339;28;20033;-89
2022/10/28 14:08:28;;;;;;;9.15;1.30;;;;;;;;;;4998964;28;20047;-88
2022/10/28 14:11:07;;;;;;;3.80;1.20;;;;;;;;;;5033460;28;20034;-88
2022/10/28 14:13:50;;;;;;;3.70;1.40;;;;;;;;;;5016085;28;20087;-89
2022/10/28 14:16:25;;;;;;;2.50;1.30;;;;;;;;;;5015287;28;20121;-89
2022/10/28 14:19:20;;;;;;;7.43;1.23;;;;;;;;;;5019807;28;20049;-89
2022/10/28 14:21:54;;;;;;;5.65;1.35;;;;;;;;;;5033433;28;20033;-88
2022/10/28 14:24:44;;;;;;;4.47;1.23;;;;;;;;;;5015281;28;20120;-89
2022/10/28 14:27:14;;;;;;;5.15;1.30;;;;;;;;;;4997831;28;20033;-88
2022/10/28 14:30:20;;;;;;;3.63;1.20;;;;;;;;;;5015112;28;20038;-89
2022/10/28 14:32:51;;;;;;;5.20;1.15;;;;;;;;;;5032749;28;20041;-89
2022/10/28 14:35:42;;;;;;;4.93;1.50;;;;;;;;;;5032529;28;20037;-89
2022/10/28 14:38:42;;;;;;;4.60;1.40;;;;;;;;;;5015462;28;20095;-87
2022/10/28 14:41:38;;;;;;;3.75;1.50;;;;;;;;;;5033002;28;20044;-87
2022/10/28 14:44:21;;;;;;;5.68;1.30;;;;;;;;;;5014903;28;20037;-88
2022/10/28 14:47:07;;;;;;;1.85;1.20;;;;;;;;;;5033544;28;20025;-88
2022/10/28 14:49:40;;;;;;;3.92;1.35;;;;;;;;;;5016591;28;20438;-88
2022/10/28 14:52:13;;;;;;;3.35;1.27;;;;;;;;;;5033057;28;20103;-89
2022/10/28 14:54:54;;;;;;;2.83;1.05;;;;;;;;;;5033015;28;20097;-88
2022/10/28 14:57:32;;;;;;;6.82;1.77;;;;;;;;;;5033290;28;20512;-88
2022/10/28 15:00:04;;;;;;;4.97;1.27;;;;;;;;;;5033026;28;20441;-89
2022/10/28 15:02:31;;;;;;;6.72;1.15;;;;;;;;;;5033752;28;20021;-87
2022/10/28 15:05:12;;;;;;;4.50;1.20;;;;;;;;;;5033322;28;20037;-89
2022/10/28 15:08:02;;;;;;;;;;;;;;;;;;;;;
2022/10/28 15:10:45;;;;;;;6.72;1.27;;;;;;;;;;5015263;28;20056;-88
2022/10/28 15:13:46;;;;;;;5.85;1.30;;;;;;;;;;5015348;28;20083;-87
2022/10/28 15:16:26;;;;;;;3.88;1.10;;;;;;;;;;4998768;28;20037;-88
2022/10/28 15:18:53;;;;;;;3.53;1.25;;;;;;;;;;5000568;28;20201;-88